sensor_id;sensor_type;location;lat;lon;timestamp;P1;durP1;ratioP1;P2;durP2;ratioP2
73959;SDS011;62316;48.920;2.342;2022-08-25T00:00:45;6.00;;;6.00;;
73959;SDS011;62316;48.920;2.342;2022-08-25T00:03:13;7.75;;;7.25;;
73959;SDS011;62316;48.920;2.342;2022-08-25T00:05:38;9.50;;;9.00;;
73959;SDS011;62316;48.920;2.342;2022-08-25T00:08:04;12.00;;;10.25;;
73959;SDS011;62316;48.920;2.342;2022-08-25T00:10:31;10.50;;;10.50;;
73959;SDS011;62316;48.920;2.342;2022-08-25T00:12:59;13.50;;;10.75;;
73959;SDS011;62316;48.920;2.342;2022-08-25T00:15:26;8.25;;;8.25;;
73959;SDS011;62316;48.920;2.342;2022-08-25T00:17:52;10.00;;;10.00;;
73959;SDS011;62316;48.920;2.342;2022-08-25T00:20:17;9.00;;;8.75;;
73959;SDS011;62316;48.920;2.342;2022-08-25T00:22:43;10.25;;;10.25;;
73959;SDS011;62316;48.920;2.342;2022-08-25T00:25:09;10.25;;;9.25;;
73959;SDS011;62316;48.920;2.342;2022-08-25T00:27:34;11.00;;;11.00;;
73959;SDS011;62316;48.920;2.342;2022-08-25T00:30:00;10.75;;;9.50;;
73959;SDS011;62316;48.920;2.342;2022-08-25T00:32:25;16.00;;;12.00;;
73959;SDS011;62316;48.920;2.342;2022-08-25T00:34:51;13.75;;;13.00;;
73959;SDS011;62316;48.920;2.342;2022-08-25T00:37:17;13.50;;;13.50;;
73959;SDS011;62316;48.920;2.342;2022-08-25T00:39:43;10.00;;;10.00;;
73959;SDS011;62316;48.920;2.342;2022-08-25T00:42:09;11.00;;;9.25;;
73959;SDS011;62316;48.920;2.342;2022-08-25T00:44:35;9.75;;;9.75;;
73959;SDS011;62316;48.920;2.342;2022-08-25T00:47:02;9.50;;;9.50;;
73959;SDS011;62316;48.920;2.342;2022-08-25T00:54:44;11.00;;;11.00;;
73959;SDS011;62316;48.920;2.342;2022-08-25T00:57:11;9.00;;;9.00;;
73959;SDS011;62316;48.920;2.342;2022-08-25T00:59:38;10.00;;;10.00;;
73959;SDS011;62316;48.920;2.342;2022-08-25T01:02:05;12.50;;;10.75;;
73959;SDS011;62316;48.920;2.342;2022-08-25T01:04:32;11.00;;;10.25;;
73959;SDS011;62316;48.920;2.342;2022-08-25T01:06:58;9.50;;;9.00;;
73959;SDS011;62316;48.920;2.342;2022-08-25T01:09:24;9.75;;;9.75;;
73959;SDS011;62316;48.920;2.342;2022-08-25T01:11:51;10.25;;;8.75;;
73959;SDS011;62316;48.920;2.342;2022-08-25T01:14:17;9.25;;;8.25;;
73959;SDS011;62316;48.920;2.342;2022-08-25T01:16:44;8.50;;;8.50;;
73959;SDS011;62316;48.920;2.342;2022-08-25T01:19:12;10.00;;;9.75;;
73959;SDS011;62316;48.920;2.342;2022-08-25T01:21:40;8.00;;;8.00;;
73959;SDS011;62316;48.920;2.342;2022-08-25T01:24:10;9.50;;;9.50;;
73959;SDS011;62316;48.920;2.342;2022-08-25T01:26:40;11.25;;;10.75;;
73959;SDS011;62316;48.920;2.342;2022-08-25T01:29:07;17.50;;;13.50;;
73959;SDS011;62316;48.920;2.342;2022-08-25T01:31:45;15.00;;;13.75;;
73959;SDS011;62316;48.920;2.342;2022-08-25T01:34:15;13.25;;;13.25;;
73959;SDS011;62316;48.920;2.342;2022-08-25T01:36:42;12.00;;;12.00;;
73959;SDS011;62316;48.920;2.342;2022-08-25T01:39:08;16.75;;;15.50;;
73959;SDS011;62316;48.920;2.342;2022-08-25T01:44:14;14.75;;;13.50;;
73959;SDS011;62316;48.920;2.342;2022-08-25T01:46:40;15.00;;;15.00;;
73959;SDS011;62316;48.920;2.342;2022-08-25T01:49:06;16.50;;;16.50;;
73959;SDS011;62316;48.920;2.342;2022-08-25T01:51:33;16.75;;;15.00;;
73959;SDS011;62316;48.920;2.342;2022-08-25T01:54:03;18.25;;;17.25;;
73959;SDS011;62316;48.920;2.342;2022-08-25T01:56:29;14.00;;;14.00;;
73959;SDS011;62316;48.920;2.342;2022-08-25T01:58:55;14.00;;;12.50;;
73959;SDS011;62316;48.920;2.342;2022-08-25T02:01:22;16.75;;;16.75;;
73959;SDS011;62316;48.920;2.342;2022-08-25T02:03:49;15.00;;;15.00;;
73959;SDS011;62316;48.920;2.342;2022-08-25T02:06:21;16.00;;;16.00;;
73959;SDS011;62316;48.920;2.342;2022-08-25T02:08:52;21.25;;;19.00;;
73959;SDS011;62316;48.920;2.342;2022-08-25T02:11:22;18.75;;;15.75;;
73959;SDS011;62316;48.920;2.342;2022-08-25T02:13:49;4.50;;;4.50;;
73959;SDS011;62316;48.920;2.342;2022-08-25T02:16:17;17.75;;;17.75;;
73959;SDS011;62316;48.920;2.342;2022-08-25T02:18:46;16.25;;;15.75;;
73959;SDS011;62316;48.920;2.342;2022-08-25T02:21:12;19.25;;;15.75;;
73959;SDS011;62316;48.920;2.342;2022-08-25T02:23:38;15.00;;;15.00;;
73959;SDS011;62316;48.920;2.342;2022-08-25T02:26:05;15.50;;;15.50;;
73959;SDS011;62316;48.920;2.342;2022-08-25T02:28:32;13.25;;;13.25;;
73959;SDS011;62316;48.920;2.342;2022-08-25T02:30:57;13.50;;;13.50;;
73959;SDS011;62316;48.920;2.342;2022-08-25T02:33:22;16.25;;;15.75;;
73959;SDS011;62316;48.920;2.342;2022-08-25T02:35:48;15.25;;;15.25;;
73959;SDS011;62316;48.920;2.342;2022-08-25T02:38:13;16.75;;;15.75;;
73959;SDS011;62316;48.920;2.342;2022-08-25T02:40:38;17.00;;;15.50;;
73959;SDS011;62316;48.920;2.342;2022-08-25T02:43:04;13.50;;;13.50;;
73959;SDS011;62316;48.920;2.342;2022-08-25T02:45:30;15.50;;;13.50;;
73959;SDS011;62316;48.920;2.342;2022-08-25T02:47:55;15.75;;;14.75;;
73959;SDS011;62316;48.920;2.342;2022-08-25T02:50:20;12.50;;;12.50;;
73959;SDS011;62316;48.920;2.342;2022-08-25T02:52:46;12.00;;;12.00;;
73959;SDS011;62316;48.920;2.342;2022-08-25T02:55:14;14.25;;;14.00;;
73959;SDS011;62316;48.920;2.342;2022-08-25T02:57:41;13.50;;;13.50;;
73959;SDS011;62316;48.920;2.342;2022-08-25T03:00:07;14.00;;;14.00;;
73959;SDS011;62316;48.920;2.342;2022-08-25T03:02:34;13.75;;;13.25;;
73959;SDS011;62316;48.920;2.342;2022-08-25T03:05:00;11.25;;;10.75;;
73959;SDS011;62316;48.920;2.342;2022-08-25T03:07:25;12.00;;;11.00;;
73959;SDS011;62316;48.920;2.342;2022-08-25T03:09:51;12.25;;;12.25;;
73959;SDS011;62316;48.920;2.342;2022-08-25T03:12:16;16.00;;;16.00;;
73959;SDS011;62316;48.920;2.342;2022-08-25T03:14:41;6.00;;;5.50;;
73959;SDS011;62316;48.920;2.342;2022-08-25T03:17:07;13.25;;;13.00;;
73959;SDS011;62316;48.920;2.342;2022-08-25T03:19:33;11.75;;;11.75;;
73959;SDS011;62316;48.920;2.342;2022-08-25T03:22:00;13.75;;;13.25;;
73959;SDS011;62316;48.920;2.342;2022-08-25T03:24:26;12.50;;;12.50;;
73959;SDS011;62316;48.920;2.342;2022-08-25T03:26:51;11.50;;;10.75;;
73959;SDS011;62316;48.920;2.342;2022-08-25T03:29:17;14.75;;;12.25;;
73959;SDS011;62316;48.920;2.342;2022-08-25T03:31:43;12.00;;;11.50;;
73959;SDS011;62316;48.920;2.342;2022-08-25T03:34:12;11.25;;;11.25;;
73959;SDS011;62316;48.920;2.342;2022-08-25T03:36:40;15.50;;;12.75;;
73959;SDS011;62316;48.920;2.342;2022-08-25T03:39:06;13.00;;;13.00;;
73959;SDS011;62316;48.920;2.342;2022-08-25T03:41:32;10.00;;;9.75;;
73959;SDS011;62316;48.920;2.342;2022-08-25T03:43:58;14.00;;;11.25;;
73959;SDS011;62316;48.920;2.342;2022-08-25T03:46:26;5.75;;;5.75;;
73959;SDS011;62316;48.920;2.342;2022-08-25T03:48:56;12.75;;;10.50;;
73959;SDS011;62316;48.920;2.342;2022-08-25T03:51:23;11.50;;;11.50;;
73959;SDS011;62316;48.920;2.342;2022-08-25T03:53:51;10.50;;;10.50;;
73959;SDS011;62316;48.920;2.342;2022-08-25T03:56:17;12.25;;;12.25;;
73959;SDS011;62316;48.920;2.342;2022-08-25T03:58:42;13.75;;;11.50;;
73959;SDS011;62316;48.920;2.342;2022-08-25T04:01:08;11.00;;;11.00;;
73959;SDS011;62316;48.920;2.342;2022-08-25T04:03:34;13.50;;;11.25;;
73959;SDS011;62316;48.920;2.342;2022-08-25T04:06:00;11.75;;;10.50;;
73959;SDS011;62316;48.920;2.342;2022-08-25T04:08:26;14.25;;;13.25;;
73959;SDS011;62316;48.920;2.342;2022-08-25T04:10:52;19.00;;;19.00;;
73959;SDS011;62316;48.920;2.342;2022-08-25T04:13:18;13.75;;;12.50;;
73959;SDS011;62316;48.920;2.342;2022-08-25T04:15:43;15.75;;;12.50;;
73959;SDS011;62316;48.920;2.342;2022-08-25T04:18:09;27.75;;;21.50;;
73959;SDS011;62316;48.920;2.342;2022-08-25T04:20:36;23.50;;;17.25;;
73959;SDS011;62316;48.920;2.342;2022-08-25T04:23:01;20.25;;;16.50;;
73959;SDS011;62316;48.920;2.342;2022-08-25T04:25:27;20.00;;;17.00;;
73959;SDS011;62316;48.920;2.342;2022-08-25T04:27:52;16.25;;;13.25;;
73959;SDS011;62316;48.920;2.342;2022-08-25T04:30:19;17.00;;;16.50;;
73959;SDS011;62316;48.920;2.342;2022-08-25T04:32:45;15.50;;;14.50;;
73959;SDS011;62316;48.920;2.342;2022-08-25T04:35:12;12.25;;;11.75;;
73959;SDS011;62316;48.920;2.342;2022-08-25T04:37:37;22.25;;;17.75;;
73959;SDS011;62316;48.920;2.342;2022-08-25T04:40:03;13.00;;;13.00;;
73959;SDS011;62316;48.920;2.342;2022-08-25T04:42:29;17.75;;;14.75;;
73959;SDS011;62316;48.920;2.342;2022-08-25T04:44:54;21.50;;;19.25;;
73959;SDS011;62316;48.920;2.342;2022-08-25T04:47:20;17.25;;;16.25;;
73959;SDS011;62316;48.920;2.342;2022-08-25T04:49:45;15.75;;;15.25;;
73959;SDS011;62316;48.920;2.342;2022-08-25T04:52:11;18.50;;;16.00;;
73959;SDS011;62316;48.920;2.342;2022-08-25T04:54:36;18.25;;;17.00;;
73959;SDS011;62316;48.920;2.342;2022-08-25T04:57:02;13.00;;;11.75;;
73959;SDS011;62316;48.920;2.342;2022-08-25T04:59:27;14.25;;;13.50;;
73959;SDS011;62316;48.920;2.342;2022-08-25T05:01:52;17.25;;;17.25;;
73959;SDS011;62316;48.920;2.342;2022-08-25T05:04:19;17.50;;;17.50;;
73959;SDS011;62316;48.920;2.342;2022-08-25T05:06:45;20.25;;;17.00;;
73959;SDS011;62316;48.920;2.342;2022-08-25T05:09:10;26.25;;;25.50;;
73959;SDS011;62316;48.920;2.342;2022-08-25T05:11:36;27.75;;;27.00;;
73959;SDS011;62316;48.920;2.342;2022-08-25T05:14:02;26.00;;;26.00;;
73959;SDS011;62316;48.920;2.342;2022-08-25T05:16:28;24.75;;;21.25;;
73959;SDS011;62316;48.920;2.342;2022-08-25T05:18:54;25.00;;;25.00;;
73959;SDS011;62316;48.920;2.342;2022-08-25T05:21:21;19.75;;;19.50;;
73959;SDS011;62316;48.920;2.342;2022-08-25T05:23:48;19.00;;;17.25;;
73959;SDS011;62316;48.920;2.342;2022-08-25T05:26:15;25.75;;;25.00;;
73959;SDS011;62316;48.920;2.342;2022-08-25T05:28:42;18.25;;;16.50;;
73959;SDS011;62316;48.920;2.342;2022-08-25T05:31:08;20.50;;;20.00;;
73959;SDS011;62316;48.920;2.342;2022-08-25T05:33:35;19.00;;;18.75;;
73959;SDS011;62316;48.920;2.342;2022-08-25T05:36:01;25.25;;;25.25;;
73959;SDS011;62316;48.920;2.342;2022-08-25T05:38:27;24.75;;;22.00;;
73959;SDS011;62316;48.920;2.342;2022-08-25T05:40:56;26.25;;;24.75;;
73959;SDS011;62316;48.920;2.342;2022-08-25T05:43:23;30.25;;;27.75;;
73959;SDS011;62316;48.920;2.342;2022-08-25T05:45:49;20.50;;;19.00;;
73959;SDS011;62316;48.920;2.342;2022-08-25T05:48:18;25.75;;;23.00;;
73959;SDS011;62316;48.920;2.342;2022-08-25T05:50:49;24.00;;;20.25;;
73959;SDS011;62316;48.920;2.342;2022-08-25T05:53:19;15.00;;;13.25;;
73959;SDS011;62316;48.920;2.342;2022-08-25T05:55:44;24.25;;;22.00;;
73959;SDS011;62316;48.920;2.342;2022-08-25T05:58:10;19.75;;;19.00;;
73959;SDS011;62316;48.920;2.342;2022-08-25T06:00:36;21.75;;;18.50;;
73959;SDS011;62316;48.920;2.342;2022-08-25T06:03:02;27.25;;;24.75;;
73959;SDS011;62316;48.920;2.342;2022-08-25T06:05:27;17.25;;;14.75;;
73959;SDS011;62316;48.920;2.342;2022-08-25T06:07:54;17.75;;;16.25;;
73959;SDS011;62316;48.920;2.342;2022-08-25T06:10:19;19.00;;;15.50;;
73959;SDS011;62316;48.920;2.342;2022-08-25T06:12:45;22.00;;;20.50;;
73959;SDS011;62316;48.920;2.342;2022-08-25T06:15:12;18.25;;;17.50;;
73959;SDS011;62316;48.920;2.342;2022-08-25T06:17:39;21.50;;;18.25;;
73959;SDS011;62316;48.920;2.342;2022-08-25T06:20:11;42.50;;;34.75;;
73959;SDS011;62316;48.920;2.342;2022-08-25T06:22:38;26.00;;;22.75;;
73959;SDS011;62316;48.920;2.342;2022-08-25T06:25:04;32.75;;;27.00;;
73959;SDS011;62316;48.920;2.342;2022-08-25T06:27:30;23.25;;;21.00;;
73959;SDS011;62316;48.920;2.342;2022-08-25T06:29:56;23.25;;;18.50;;
73959;SDS011;62316;48.920;2.342;2022-08-25T06:32:22;16.25;;;16.25;;
73959;SDS011;62316;48.920;2.342;2022-08-25T06:34:47;24.00;;;23.00;;
73959;SDS011;62316;48.920;2.342;2022-08-25T06:37:13;24.75;;;22.50;;
73959;SDS011;62316;48.920;2.342;2022-08-25T06:39:38;29.75;;;26.75;;
73959;SDS011;62316;48.920;2.342;2022-08-25T06:42:03;28.25;;;24.50;;
73959;SDS011;62316;48.920;2.342;2022-08-25T06:44:29;18.00;;;18.00;;
73959;SDS011;62316;48.920;2.342;2022-08-25T06:46:54;25.50;;;21.50;;
73959;SDS011;62316;48.920;2.342;2022-08-25T06:49:20;17.25;;;17.25;;
73959;SDS011;62316;48.920;2.342;2022-08-25T06:51:46;19.50;;;19.25;;
73959;SDS011;62316;48.920;2.342;2022-08-25T06:54:11;20.50;;;19.25;;
73959;SDS011;62316;48.920;2.342;2022-08-25T06:56:38;19.00;;;19.00;;
73959;SDS011;62316;48.920;2.342;2022-08-25T06:59:05;19.25;;;15.75;;
73959;SDS011;62316;48.920;2.342;2022-08-25T07:01:31;16.75;;;13.75;;
73959;SDS011;62316;48.920;2.342;2022-08-25T07:03:58;28.25;;;20.00;;
73959;SDS011;62316;48.920;2.342;2022-08-25T07:06:25;21.00;;;19.50;;
73959;SDS011;62316;48.920;2.342;2022-08-25T07:08:51;20.00;;;17.00;;
73959;SDS011;62316;48.920;2.342;2022-08-25T07:11:17;19.75;;;17.50;;
73959;SDS011;62316;48.920;2.342;2022-08-25T07:13:44;12.75;;;11.75;;
73959;SDS011;62316;48.920;2.342;2022-08-25T07:16:09;22.75;;;19.00;;
73959;SDS011;62316;48.920;2.342;2022-08-25T07:18:35;18.00;;;16.25;;
73959;SDS011;62316;48.920;2.342;2022-08-25T07:21:01;17.00;;;16.75;;
73959;SDS011;62316;48.920;2.342;2022-08-25T07:23:26;19.50;;;17.50;;
73959;SDS011;62316;48.920;2.342;2022-08-25T07:25:52;15.00;;;14.00;;
73959;SDS011;62316;48.920;2.342;2022-08-25T07:28:18;0.00;;;0.00;;
73959;SDS011;62316;48.920;2.342;2022-08-25T07:30:45;15.75;;;13.75;;
73959;SDS011;62316;48.920;2.342;2022-08-25T07:33:10;14.75;;;12.75;;
73959;SDS011;62316;48.920;2.342;2022-08-25T07:35:36;14.50;;;14.00;;
73959;SDS011;62316;48.920;2.342;2022-08-25T07:38:02;12.00;;;12.00;;
73959;SDS011;62316;48.920;2.342;2022-08-25T07:40:30;12.25;;;10.75;;
73959;SDS011;62316;48.920;2.342;2022-08-25T07:42:58;16.75;;;16.75;;
73959;SDS011;62316;48.920;2.342;2022-08-25T07:45:27;5.67;;;5.67;;
73959;SDS011;62316;48.920;2.342;2022-08-25T07:47:55;12.50;;;12.50;;
73959;SDS011;62316;48.920;2.342;2022-08-25T07:50:21;14.75;;;12.25;;
73959;SDS011;62316;48.920;2.342;2022-08-25T07:52:47;11.00;;;11.00;;
73959;SDS011;62316;48.920;2.342;2022-08-25T07:55:13;10.50;;;10.00;;
73959;SDS011;62316;48.920;2.342;2022-08-25T07:57:39;12.75;;;10.50;;
73959;SDS011;62316;48.920;2.342;2022-08-25T08:00:05;9.50;;;8.50;;
73959;SDS011;62316;48.920;2.342;2022-08-25T08:02:31;12.25;;;11.25;;
73959;SDS011;62316;48.920;2.342;2022-08-25T08:04:56;9.25;;;9.25;;
73959;SDS011;62316;48.920;2.342;2022-08-25T08:07:24;13.75;;;13.00;;
73959;SDS011;62316;48.920;2.342;2022-08-25T08:09:50;12.00;;;11.00;;
73959;SDS011;62316;48.920;2.342;2022-08-25T08:12:16;12.00;;;11.75;;
73959;SDS011;62316;48.920;2.342;2022-08-25T08:14:42;13.75;;;12.00;;
73959;SDS011;62316;48.920;2.342;2022-08-25T08:17:08;14.25;;;13.50;;
73959;SDS011;62316;48.920;2.342;2022-08-25T08:19:35;9.75;;;9.25;;
73959;SDS011;62316;48.920;2.342;2022-08-25T08:22:01;9.75;;;9.00;;
73959;SDS011;62316;48.920;2.342;2022-08-25T08:24:28;10.25;;;10.25;;
73959;SDS011;62316;48.920;2.342;2022-08-25T08:26:55;8.25;;;7.25;;
73959;SDS011;62316;48.920;2.342;2022-08-25T08:29:21;11.00;;;9.25;;
73959;SDS011;62316;48.920;2.342;2022-08-25T08:31:47;15.25;;;13.00;;
73959;SDS011;62316;48.920;2.342;2022-08-25T08:34:12;11.25;;;10.00;;
73959;SDS011;62316;48.920;2.342;2022-08-25T08:36:38;15.00;;;13.67;;
73959;SDS011;62316;48.920;2.342;2022-08-25T08:39:03;12.25;;;12.25;;
73959;SDS011;62316;48.920;2.342;2022-08-25T08:41:39;14.00;;;12.33;;
73959;SDS011;62316;48.920;2.342;2022-08-25T08:47:27;14.00;;;12.50;;
73959;SDS011;62316;48.920;2.342;2022-08-25T08:53:15;14.50;;;10.75;;
73959;SDS011;62316;48.920;2.342;2022-08-25T08:58:02;14.50;;;13.25;;
73959;SDS011;62316;48.920;2.342;2022-08-25T09:00:30;17.00;;;15.50;;
73959;SDS011;62316;48.920;2.342;2022-08-25T09:03:01;13.50;;;13.50;;
73959;SDS011;62316;48.920;2.342;2022-08-25T09:05:29;17.00;;;15.00;;
73959;SDS011;62316;48.920;2.342;2022-08-25T09:08:02;16.00;;;15.00;;
73959;SDS011;62316;48.920;2.342;2022-08-25T09:10:34;18.00;;;16.25;;
73959;SDS011;62316;48.920;2.342;2022-08-25T09:22:08;14.00;;;13.00;;
73959;SDS011;62316;48.920;2.342;2022-08-25T09:30:13;12.00;;;12.00;;
73959;SDS011;62316;48.920;2.342;2022-08-25T09:32:42;15.75;;;13.75;;
73959;SDS011;62316;48.920;2.342;2022-08-25T09:35:13;13.50;;;12.25;;
73959;SDS011;62316;48.920;2.342;2022-08-25T09:37:42;12.25;;;11.00;;
73959;SDS011;62316;48.920;2.342;2022-08-25T09:40:20;15.00;;;13.00;;
73959;SDS011;62316;48.920;2.342;2022-08-25T09:42:46;17.00;;;14.50;;
73959;SDS011;62316;48.920;2.342;2022-08-25T09:45:14;17.75;;;13.75;;
73959;SDS011;62316;48.920;2.342;2022-08-25T09:47:44;15.25;;;14.00;;
73959;SDS011;62316;48.920;2.342;2022-08-25T09:50:16;14.75;;;13.25;;
73959;SDS011;62316;48.920;2.342;2022-08-25T09:52:44;15.00;;;14.00;;
73959;SDS011;62316;48.920;2.342;2022-08-25T10:02:38;14.50;;;12.25;;
73959;SDS011;62316;48.920;2.342;2022-08-25T10:07:50;11.75;;;10.25;;
73959;SDS011;62316;48.920;2.342;2022-08-25T10:10:39;10.75;;;10.75;;
73959;SDS011;62316;48.920;2.342;2022-08-25T10:13:16;11.50;;;11.50;;
73959;SDS011;62316;48.920;2.342;2022-08-25T10:15:43;10.00;;;9.75;;
73959;SDS011;62316;48.920;2.342;2022-08-25T10:20:41;10.50;;;10.50;;
73959;SDS011;62316;48.920;2.342;2022-08-25T10:23:11;9.50;;;9.50;;
73959;SDS011;62316;48.920;2.342;2022-08-25T10:25:40;12.00;;;9.75;;
73959;SDS011;62316;48.920;2.342;2022-08-25T10:31:01;11.00;;;11.00;;
73959;SDS011;62316;48.920;2.342;2022-08-25T10:33:48;11.75;;;10.75;;
73959;SDS011;62316;48.920;2.342;2022-08-25T10:36:19;10.50;;;10.50;;
73959;SDS011;62316;48.920;2.342;2022-08-25T10:38:54;12.25;;;12.00;;
73959;SDS011;62316;48.920;2.342;2022-08-25T10:47:04;9.75;;;9.75;;
73959;SDS011;62316;48.920;2.342;2022-08-25T10:49:55;12.75;;;12.25;;
73959;SDS011;62316;48.920;2.342;2022-08-25T10:55:22;10.75;;;10.75;;
73959;SDS011;62316;48.920;2.342;2022-08-25T11:00:49;11.25;;;11.00;;
73959;SDS011;62316;48.920;2.342;2022-08-25T11:03:33;10.75;;;10.75;;
73959;SDS011;62316;48.920;2.342;2022-08-25T11:06:10;12.50;;;12.50;;
73959;SDS011;62316;48.920;2.342;2022-08-25T11:08:46;11.50;;;11.50;;
73959;SDS011;62316;48.920;2.342;2022-08-25T11:14:06;12.25;;;12.25;;
73959;SDS011;62316;48.920;2.342;2022-08-25T11:16:41;10.50;;;9.00;;
73959;SDS011;62316;48.920;2.342;2022-08-25T11:19:19;10.00;;;10.00;;
73959;SDS011;62316;48.920;2.342;2022-08-25T11:21:51;11.75;;;10.25;;
73959;SDS011;62316;48.920;2.342;2022-08-25T11:27:07;9.50;;;9.00;;
73959;SDS011;62316;48.920;2.342;2022-08-25T11:29:38;11.75;;;11.00;;
73959;SDS011;62316;48.920;2.342;2022-08-25T11:32:05;8.25;;;8.25;;
73959;SDS011;62316;48.920;2.342;2022-08-25T11:34:32;14.75;;;14.00;;
73959;SDS011;62316;48.920;2.342;2022-08-25T11:37:07;11.25;;;11.00;;
73959;SDS011;62316;48.920;2.342;2022-08-25T11:42:47;11.50;;;11.50;;
73959;SDS011;62316;48.920;2.342;2022-08-25T11:53:25;12.25;;;12.25;;
73959;SDS011;62316;48.920;2.342;2022-08-25T11:56:03;13.25;;;13.25;;
73959;SDS011;62316;48.920;2.342;2022-08-25T11:58:38;13.25;;;12.25;;
73959;SDS011;62316;48.920;2.342;2022-08-25T12:01:10;12.00;;;12.00;;
73959;SDS011;62316;48.920;2.342;2022-08-25T12:09:34;12.75;;;12.50;;
73959;SDS011;62316;48.920;2.342;2022-08-25T12:28:55;8.00;;;8.00;;
73959;SDS011;62316;48.920;2.342;2022-08-25T12:36:29;5.25;;;5.25;;
73959;SDS011;62316;48.920;2.342;2022-08-25T12:41:53;7.75;;;7.75;;
73959;SDS011;62316;48.920;2.342;2022-08-25T12:44:42;13.00;;;13.00;;
73959;SDS011;62316;48.920;2.342;2022-08-25T12:49:49;10.00;;;10.00;;
73959;SDS011;62316;48.920;2.342;2022-08-25T12:52:15;10.00;;;9.00;;
73959;SDS011;62316;48.920;2.342;2022-08-25T12:54:47;8.50;;;8.50;;
73959;SDS011;62316;48.920;2.342;2022-08-25T12:59:48;11.25;;;11.00;;
73959;SDS011;62316;48.920;2.342;2022-08-25T13:13:30;10.00;;;10.00;;
73959;SDS011;62316;48.920;2.342;2022-08-25T13:16:15;10.00;;;10.00;;
73959;SDS011;62316;48.920;2.342;2022-08-25T13:18:43;8.25;;;8.25;;
73959;SDS011;62316;48.920;2.342;2022-08-25T13:23:58;12.75;;;11.25;;
73959;SDS011;62316;48.920;2.342;2022-08-25T13:26:30;12.25;;;11.50;;
73959;SDS011;62316;48.920;2.342;2022-08-25T13:28:58;12.00;;;10.75;;
73959;SDS011;62316;48.920;2.342;2022-08-25T13:31:26;12.00;;;9.75;;
73959;SDS011;62316;48.920;2.342;2022-08-25T13:33:56;10.50;;;10.50;;
73959;SDS011;62316;48.920;2.342;2022-08-25T13:36:23;12.25;;;11.00;;
73959;SDS011;62316;48.920;2.342;2022-08-25T13:39:13;9.00;;;9.00;;
73959;SDS011;62316;48.920;2.342;2022-08-25T13:41:46;8.00;;;8.00;;
73959;SDS011;62316;48.920;2.342;2022-08-25T13:44:16;10.75;;;8.50;;
73959;SDS011;62316;48.920;2.342;2022-08-25T13:46:43;12.00;;;10.75;;
73959;SDS011;62316;48.920;2.342;2022-08-25T13:49:09;6.50;;;4.25;;
73959;SDS011;62316;48.920;2.342;2022-08-25T13:51:36;10.75;;;10.25;;
73959;SDS011;62316;48.920;2.342;2022-08-25T13:54:07;8.00;;;8.00;;
73959;SDS011;62316;48.920;2.342;2022-08-25T13:56:43;9.00;;;9.00;;
73959;SDS011;62316;48.920;2.342;2022-08-25T13:59:25;10.75;;;9.25;;
73959;SDS011;62316;48.920;2.342;2022-08-25T14:01:55;9.50;;;8.50;;
73959;SDS011;62316;48.920;2.342;2022-08-25T14:12:29;9.25;;;8.75;;
73959;SDS011;62316;48.920;2.342;2022-08-25T14:17:39;9.25;;;9.25;;
73959;SDS011;62316;48.920;2.342;2022-08-25T14:20:16;7.00;;;7.00;;
73959;SDS011;62316;48.920;2.342;2022-08-25T14:22:43;9.00;;;8.00;;
73959;SDS011;62316;48.920;2.342;2022-08-25T14:25:08;6.00;;;4.75;;
73959;SDS011;62316;48.920;2.342;2022-08-25T14:27:34;6.50;;;6.00;;
73959;SDS011;62316;48.920;2.342;2022-08-25T14:29:59;6.25;;;5.50;;
73959;SDS011;62316;48.920;2.342;2022-08-25T14:32:24;5.67;;;5.00;;
73959;SDS011;62316;48.920;2.342;2022-08-25T14:34:50;6.25;;;5.25;;
73959;SDS011;62316;48.920;2.342;2022-08-25T14:37:16;5.50;;;5.50;;
73959;SDS011;62316;48.920;2.342;2022-08-25T14:39:43;4.75;;;4.75;;
73959;SDS011;62316;48.920;2.342;2022-08-25T14:42:09;8.50;;;6.00;;
73959;SDS011;62316;48.920;2.342;2022-08-25T14:44:35;2.25;;;2.25;;
73959;SDS011;62316;48.920;2.342;2022-08-25T14:47:01;4.25;;;4.25;;
73959;SDS011;62316;48.920;2.342;2022-08-25T14:49:28;10.50;;;7.75;;
73959;SDS011;62316;48.920;2.342;2022-08-25T14:51:58;5.00;;;5.00;;
73959;SDS011;62316;48.920;2.342;2022-08-25T14:54:27;5.50;;;5.50;;
73959;SDS011;62316;48.920;2.342;2022-08-25T14:56:53;5.75;;;4.75;;
73959;SDS011;62316;48.920;2.342;2022-08-25T14:59:19;8.33;;;6.33;;
73959;SDS011;62316;48.920;2.342;2022-08-25T15:01:44;5.50;;;5.25;;
73959;SDS011;62316;48.920;2.342;2022-08-25T15:04:11;6.25;;;5.75;;
73959;SDS011;62316;48.920;2.342;2022-08-25T15:06:38;4.75;;;4.75;;
73959;SDS011;62316;48.920;2.342;2022-08-25T15:09:06;6.00;;;5.00;;
73959;SDS011;62316;48.920;2.342;2022-08-25T15:11:34;6.75;;;6.25;;
73959;SDS011;62316;48.920;2.342;2022-08-25T15:14:00;4.25;;;4.25;;
73959;SDS011;62316;48.920;2.342;2022-08-25T15:16:30;6.25;;;5.25;;
73959;SDS011;62316;48.920;2.342;2022-08-25T15:18:58;5.50;;;5.50;;
73959;SDS011;62316;48.920;2.342;2022-08-25T15:21:24;5.67;;;5.67;;
73959;SDS011;62316;48.920;2.342;2022-08-25T15:23:49;7.25;;;7.25;;
73959;SDS011;62316;48.920;2.342;2022-08-25T15:26:15;5.25;;;5.25;;
73959;SDS011;62316;48.920;2.342;2022-08-25T15:28:43;5.00;;;5.00;;
73959;SDS011;62316;48.920;2.342;2022-08-25T15:31:12;5.75;;;5.75;;
73959;SDS011;62316;48.920;2.342;2022-08-25T15:33:38;5.50;;;5.25;;
73959;SDS011;62316;48.920;2.342;2022-08-25T15:36:10;5.25;;;5.25;;
73959;SDS011;62316;48.920;2.342;2022-08-25T15:38:38;6.25;;;6.25;;
73959;SDS011;62316;48.920;2.342;2022-08-25T15:41:06;6.00;;;6.00;;
73959;SDS011;62316;48.920;2.342;2022-08-25T15:43:32;5.25;;;5.25;;
73959;SDS011;62316;48.920;2.342;2022-08-25T15:45:58;5.00;;;5.00;;
73959;SDS011;62316;48.920;2.342;2022-08-25T15:48:23;7.25;;;7.00;;
73959;SDS011;62316;48.920;2.342;2022-08-25T15:50:52;5.00;;;5.00;;
73959;SDS011;62316;48.920;2.342;2022-08-25T15:53:19;6.00;;;6.00;;
73959;SDS011;62316;48.920;2.342;2022-08-25T15:55:46;7.50;;;5.75;;
73959;SDS011;62316;48.920;2.342;2022-08-25T15:58:12;6.50;;;6.50;;
73959;SDS011;62316;48.920;2.342;2022-08-25T16:00:38;4.75;;;4.75;;
73959;SDS011;62316;48.920;2.342;2022-08-25T16:03:03;7.00;;;7.00;;
73959;SDS011;62316;48.920;2.342;2022-08-25T16:05:29;4.75;;;4.75;;
73959;SDS011;62316;48.920;2.342;2022-08-25T16:07:54;7.00;;;7.00;;
73959;SDS011;62316;48.920;2.342;2022-08-25T16:10:20;6.50;;;5.00;;
73959;SDS011;62316;48.920;2.342;2022-08-25T16:12:45;7.00;;;7.00;;
73959;SDS011;62316;48.920;2.342;2022-08-25T16:15:10;3.75;;;3.75;;
73959;SDS011;62316;48.920;2.342;2022-08-25T16:17:36;4.33;;;3.67;;
73959;SDS011;62316;48.920;2.342;2022-08-25T16:20:02;7.33;;;5.00;;
73959;SDS011;62316;48.920;2.342;2022-08-25T16:22:28;4.25;;;4.25;;
73959;SDS011;62316;48.920;2.342;2022-08-25T16:24:54;6.00;;;6.00;;
73959;SDS011;62316;48.920;2.342;2022-08-25T16:27:19;6.33;;;5.00;;
73959;SDS011;62316;48.920;2.342;2022-08-25T16:29:44;5.00;;;5.00;;
73959;SDS011;62316;48.920;2.342;2022-08-25T16:32:11;5.00;;;5.00;;
73959;SDS011;62316;48.920;2.342;2022-08-25T16:34:37;3.00;;;3.00;;
73959;SDS011;62316;48.920;2.342;2022-08-25T16:37:03;4.25;;;4.25;;
73959;SDS011;62316;48.920;2.342;2022-08-25T16:39:29;3.67;;;3.67;;
73959;SDS011;62316;48.920;2.342;2022-08-25T16:41:54;4.00;;;4.00;;
73959;SDS011;62316;48.920;2.342;2022-08-25T16:44:20;1.33;;;1.33;;
73959;SDS011;62316;48.920;2.342;2022-08-25T16:46:46;3.50;;;3.50;;